createdAt,value
2022-11-27T00:01:18.112Z,9.77
2022-11-27T00:03:47.391Z,8.52
2022-11-27T00:06:16.150Z,9.20
2022-11-27T00:08:43.954Z,8.98
2022-11-27T00:11:12.326Z,8.35
2022-11-27T00:13:40.105Z,9.13
2022-11-27T00:16:08.221Z,8.13
2022-11-27T00:18:36.655Z,8.35
2022-11-27T00:21:06.585Z,8.52
2022-11-27T00:23:34.765Z,9.40
2022-11-27T00:26:02.330Z,8.43
2022-11-27T00:28:29.835Z,7.40
2022-11-27T00:30:59.419Z,8.52
2022-11-27T00:33:27.196Z,7.18
2022-11-27T00:35:54.672Z,7.50
2022-11-27T00:38:23.506Z,8.52
2022-11-27T00:40:50.985Z,8.18
2022-11-27T00:43:18.487Z,9.10
2022-11-27T00:45:49.385Z,8.60
2022-11-27T00:48:16.859Z,8.93
2022-11-27T00:50:44.314Z,8.30
2022-11-27T00:53:11.962Z,7.97
2022-11-27T00:55:40.814Z,7.40
2022-11-27T00:58:08.725Z,8.73
2022-11-27T01:00:36.205Z,7.82
2022-11-27T01:03:03.722Z,8.45
2022-11-27T01:05:31.274Z,8.30
2022-11-27T01:07:58.812Z,7.60
2022-11-27T01:10:26.436Z,9.40
2022-11-27T01:12:55.265Z,8.07
2022-11-27T01:15:22.767Z,8.80
2022-11-27T01:17:50.195Z,8.25
2022-11-27T01:20:17.737Z,8.57
2022-11-27T01:22:45.260Z,8.50
2022-11-27T01:25:12.714Z,8.43
2022-11-27T01:27:40.217Z,8.20
2022-11-27T01:30:09.980Z,8.40
2022-11-27T01:32:37.460Z,8.57
2022-11-27T01:35:05.138Z,8.43
2022-11-27T01:37:32.625Z,8.30
2022-11-27T01:40:00.128Z,8.75
2022-11-27T01:42:27.642Z,8.80
2022-11-27T01:44:56.044Z,8.77
2022-11-27T01:47:36.070Z,8.45
2022-11-27T01:50:14.663Z,8.57
2022-11-27T01:52:44.091Z,8.80
2022-11-27T01:55:13.499Z,8.93
2022-11-27T01:57:42.289Z,8.02
2022-11-27T02:00:12.930Z,8.00
2022-11-27T02:02:42.174Z,8.55
2022-11-27T02:05:10.710Z,8.88
2022-11-27T02:07:38.286Z,8.45
2022-11-27T02:10:06.707Z,8.52
2022-11-27T02:12:36.945Z,8.43
2022-11-27T02:15:09.002Z,8.15
2022-11-27T02:17:38.674Z,8.50
2022-11-27T02:20:14.861Z,8.38
2022-11-27T02:22:49.421Z,8.02
2022-11-27T02:25:26.778Z,9.55
2022-11-27T02:28:06.037Z,7.82
2022-11-27T02:33:05.550Z,7.20
2022-11-27T02:35:35.401Z,8.05
2022-11-27T02:38:05.917Z,8.30
2022-11-27T02:40:36.417Z,8.55
2022-11-27T02:43:07.727Z,8.85
2022-11-27T02:48:04.415Z,8.40
2022-11-27T02:50:33.187Z,8.68
2022-11-27T02:53:02.889Z,8.27
2022-11-27T02:55:32.598Z,9.88
2022-11-27T02:58:01.828Z,9.82
2022-11-27T03:00:29.978Z,9.73
2022-11-27T03:02:58.944Z,9.13
2022-11-27T03:05:29.565Z,9.40
2022-11-27T03:08:00.659Z,9.98
2022-11-27T03:10:31.471Z,8.95
2022-11-27T03:12:59.784Z,9.88
2022-11-27T03:15:30.093Z,10.30
2022-11-27T03:18:01.061Z,10.20
2022-11-27T03:20:32.149Z,10.77
2022-11-27T03:22:59.692Z,9.60
2022-11-27T03:25:27.154Z,9.07
2022-11-27T03:27:57.066Z,11.13
2022-11-27T03:30:24.558Z,10.88
2022-11-27T03:32:52.254Z,10.68
2022-11-27T03:35:20.903Z,10.05
2022-11-27T03:37:49.766Z,11.63
2022-11-27T03:40:17.753Z,9.93
2022-11-27T03:42:49.712Z,10.13
2022-11-27T03:45:23.374Z,10.13
2022-11-27T03:47:55.122Z,11.05
2022-11-27T03:50:29.248Z,10.50
2022-11-27T03:53:01.641Z,9.82
2022-11-27T03:55:32.826Z,10.10
2022-11-27T04:00:28.746Z,8.95
2022-11-27T04:02:56.230Z,10.73
2022-11-27T04:05:23.909Z,11.00
2022-11-27T04:07:51.391Z,9.65
2022-11-27T04:10:20.481Z,10.05
2022-11-27T04:12:47.993Z,10.10
2022-11-27T04:15:15.496Z,10.00
2022-11-27T04:17:42.960Z,8.90
2022-11-27T04:20:11.812Z,9.02
2022-11-27T04:22:39.330Z,9.98
2022-11-27T04:25:07.161Z,9.48
2022-11-27T04:27:35.997Z,7.57
2022-11-27T04:30:03.480Z,8.45
2022-11-27T04:32:30.950Z,8.07
2022-11-27T04:34:58.418Z,9.13
2022-11-27T04:37:25.898Z,8.57
2022-11-27T04:39:53.393Z,8.32
2022-11-27T04:42:20.869Z,9.10
2022-11-27T04:44:49.704Z,8.52
2022-11-27T04:47:17.217Z,8.05
2022-11-27T04:49:44.793Z,8.05
2022-11-27T04:52:12.265Z,8.55
2022-11-27T04:54:39.918Z,8.93
2022-11-27T04:57:07.853Z,8.70
2022-11-27T04:59:35.330Z,9.25
2022-11-27T05:02:04.204Z,9.57
2022-11-27T05:04:31.653Z,7.88
2022-11-27T05:06:59.129Z,8.95
2022-11-27T05:09:26.648Z,8.00
2022-11-27T05:11:54.131Z,7.32
2022-11-27T05:14:22.683Z,7.35
2022-11-27T05:16:51.067Z,8.07
2022-11-27T05:19:21.006Z,7.72
2022-11-27T05:21:48.748Z,7.93
2022-11-27T05:24:16.737Z,7.47
2022-11-27T05:26:44.479Z,8.05
2022-11-27T05:29:11.992Z,7.63
2022-11-27T05:31:39.797Z,7.93
2022-11-27T05:34:07.372Z,8.35
2022-11-27T05:36:36.261Z,8.35
2022-11-27T05:39:04.697Z,9.38
2022-11-27T05:41:32.139Z,8.63
2022-11-27T05:43:59.568Z,9.60
2022-11-27T05:46:27.065Z,9.77
2022-11-27T05:48:54.652Z,8.68
2022-11-27T05:51:22.448Z,8.75
2022-11-27T05:53:51.318Z,8.68
2022-11-27T05:56:19.307Z,8.90
2022-11-27T05:58:47.676Z,9.52
2022-11-27T06:01:16.065Z,8.80
2022-11-27T06:03:43.594Z,8.63
2022-11-27T06:06:12.689Z,8.35
2022-11-27T06:08:40.814Z,8.95
2022-11-27T06:11:10.288Z,8.80
2022-11-27T06:13:38.044Z,8.63
2022-11-27T06:16:07.241Z,8.82
2022-11-27T06:18:34.752Z,8.48
2022-11-27T06:21:02.249Z,8.82
2022-11-27T06:23:29.716Z,9.27
2022-11-27T06:25:57.185Z,10.02
2022-11-27T06:28:26.024Z,9.52
2022-11-27T06:30:53.487Z,9.20
2022-11-27T06:33:20.957Z,9.10
2022-11-27T06:35:48.432Z,8.80
2022-11-27T06:38:15.917Z,9.18
2022-11-27T06:40:43.513Z,8.48
2022-11-27T06:43:11.024Z,8.65
2022-11-27T06:45:39.880Z,13.13
2022-11-27T06:48:07.513Z,9.63
2022-11-27T06:50:34.953Z,9.60
2022-11-27T06:53:02.461Z,9.25
2022-11-27T06:55:29.932Z,10.05
2022-11-27T06:57:57.408Z,9.52
2022-11-27T07:00:24.910Z,8.32
2022-11-27T07:02:56.062Z,9.32
2022-11-27T07:05:24.490Z,9.32
2022-11-27T07:07:52.051Z,9.18
2022-11-27T07:10:19.522Z,9.05
2022-11-27T07:12:46.954Z,9.05
2022-11-27T07:15:14.434Z,8.90
2022-11-27T07:17:42.593Z,9.43
2022-11-27T07:20:11.962Z,9.10
2022-11-27T07:22:39.421Z,8.85
2022-11-27T07:25:07.408Z,9.35
2022-11-27T07:27:34.940Z,9.93
2022-11-27T07:30:02.422Z,9.07
2022-11-27T07:32:29.886Z,9.75
2022-11-27T07:34:57.353Z,9.63
2022-11-27T07:37:26.224Z,9.73
2022-11-27T07:40:02.464Z,9.82
2022-11-27T07:42:39.067Z,9.48
2022-11-27T07:45:07.425Z,8.55
2022-11-27T07:47:34.977Z,9.63
2022-11-27T07:50:02.565Z,9.98
2022-11-27T07:52:32.282Z,9.45
2022-11-27T07:55:01.088Z,8.68
2022-11-27T07:57:28.842Z,9.98
2022-11-27T07:59:56.278Z,8.77
2022-11-27T08:02:23.834Z,9.63
2022-11-27T08:04:51.405Z,10.07
2022-11-27T08:07:18.954Z,11.73
2022-11-27T08:09:48.059Z,10.55
2022-11-27T08:12:15.758Z,9.57
2022-11-27T08:14:43.263Z,10.38
2022-11-27T08:17:13.232Z,9.95
2022-11-27T08:19:40.710Z,9.82
2022-11-27T08:22:11.576Z,9.50
2022-11-27T08:24:39.375Z,11.38
2022-11-27T08:27:08.439Z,10.32
2022-11-27T08:29:35.973Z,12.27
2022-11-27T08:32:03.809Z,10.48
2022-11-27T08:34:31.355Z,11.98
2022-11-27T08:36:58.810Z,10.85
2022-11-27T08:39:27.315Z,10.27
2022-11-27T08:41:55.016Z,9.98
2022-11-27T08:44:24.023Z,10.05
2022-11-27T08:46:51.719Z,10.75
2022-11-27T08:49:19.309Z,11.30
2022-11-27T08:51:46.860Z,10.00
2022-11-27T08:54:14.490Z,10.55
2022-11-27T08:56:41.947Z,10.10
2022-11-27T08:59:09.435Z,10.68
2022-11-27T09:01:38.417Z,9.90
2022-11-27T09:04:06.114Z,10.02
2022-11-27T09:06:34.682Z,10.73
2022-11-27T09:09:02.769Z,10.23
2022-11-27T09:11:31.099Z,10.07
2022-11-27T09:13:59.778Z,9.10
2022-11-27T09:16:28.047Z,10.07
2022-11-27T09:18:57.698Z,9.50
2022-11-27T09:21:27.072Z,9.52
2022-11-27T09:23:54.949Z,8.85
2022-11-27T09:26:23.779Z,8.50
2022-11-27T09:28:51.269Z,8.95
2022-11-27T09:31:19.456Z,9.73
2022-11-27T09:33:47.071Z,9.23
2022-11-27T09:36:17.136Z,9.63
2022-11-27T09:38:44.744Z,9.45
2022-11-27T09:41:21.570Z,9.27
2022-11-27T09:43:52.282Z,8.63
2022-11-27T09:46:25.509Z,9.40
2022-11-27T09:48:53.759Z,8.50
2022-11-27T09:51:24.662Z,8.00
2022-11-27T09:53:57.291Z,7.80
2022-11-27T09:56:25.170Z,8.57
2022-11-27T09:58:57.333Z,8.65
2022-11-27T10:01:33.644Z,8.05
2022-11-27T10:04:06.422Z,9.32
2022-11-27T10:06:43.313Z,7.88
2022-11-27T10:09:18.169Z,7.68
2022-11-27T10:11:48.970Z,7.80
2022-11-27T10:14:33.079Z,7.38
2022-11-27T10:17:03.802Z,7.35
2022-11-27T10:19:33.402Z,7.82
2022-11-27T10:22:03.697Z,6.95
2022-11-27T10:24:36.770Z,7.20
2022-11-27T10:27:09.320Z,6.60
2022-11-27T10:29:37.695Z,6.53
2022-11-27T10:32:07.853Z,6.03
2022-11-27T10:34:38.540Z,6.95
2022-11-27T10:37:12.372Z,7.20
2022-11-27T10:39:42.824Z,5.78
2022-11-27T10:42:11.575Z,6.35
2022-11-27T10:44:41.370Z,6.20
2022-11-27T10:47:10.374Z,5.60
2022-11-27T10:49:40.009Z,6.40
2022-11-27T10:52:13.097Z,7.40
2022-11-27T10:54:41.286Z,6.45
2022-11-27T10:57:26.527Z,7.03
2022-11-27T11:00:01.602Z,6.60
2022-11-27T11:02:30.584Z,6.63
2022-11-27T11:05:24.181Z,6.00
2022-11-27T11:07:55.686Z,7.43
2022-11-27T11:10:25.769Z,6.03
2022-11-27T11:13:04.628Z,5.50
2022-11-27T11:15:32.531Z,4.95
2022-11-27T11:18:00.181Z,5.55
2022-11-27T11:20:27.715Z,5.05
2022-11-27T11:22:56.661Z,5.38
2022-11-27T11:25:24.182Z,7.53
2022-11-27T11:27:52.220Z,6.60
2022-11-27T11:30:23.451Z,8.40
2022-11-27T11:32:51.610Z,6.38
2022-11-27T11:35:26.808Z,6.07
2022-11-27T11:37:54.687Z,4.95
2022-11-27T11:40:25.822Z,5.00
2022-11-27T11:45:21.264Z,4.95
2022-11-27T11:47:50.085Z,4.97
2022-11-27T11:50:23.067Z,5.03
2022-11-27T11:52:55.572Z,4.65
2022-11-27T11:55:27.590Z,5.18
2022-11-27T11:58:12.689Z,4.65
2022-11-27T12:01:04.873Z,5.20
2022-11-27T12:06:13.081Z,4.30
2022-11-27T12:08:45.607Z,4.43
2022-11-27T12:11:16.197Z,4.40
2022-11-27T12:13:50.414Z,3.97
2022-11-27T12:16:22.113Z,4.43
2022-11-27T12:18:54.906Z,3.90
2022-11-27T12:21:25.105Z,3.78
2022-11-27T12:23:56.660Z,3.92
2022-11-27T12:26:32.425Z,3.70
2022-11-27T12:29:23.742Z,3.83
2022-11-27T12:32:08.426Z,3.45
2022-11-27T12:34:40.764Z,3.90
2022-11-27T12:37:14.793Z,4.03
2022-11-27T12:39:51.177Z,4.22
2022-11-27T12:42:22.292Z,3.70
2022-11-27T12:44:54.107Z,4.10
2022-11-27T12:47:24.207Z,3.92
2022-11-27T12:49:52.933Z,4.10
2022-11-27T12:52:21.569Z,4.18
2022-11-27T12:54:52.108Z,4.55
2022-11-27T12:57:23.117Z,3.75
2022-11-27T13:02:30.570Z,3.95
2022-11-27T13:05:01.221Z,3.90
2022-11-27T13:07:30.714Z,4.10
2022-11-27T13:10:00.068Z,4.65
2022-11-27T13:12:30.776Z,4.60
2022-11-27T13:15:01.365Z,3.88
2022-11-27T13:17:33.384Z,3.63
2022-11-27T13:20:02.142Z,4.25
2022-11-27T13:22:32.063Z,3.45
2022-11-27T13:25:01.610Z,3.40
2022-11-27T13:27:31.378Z,3.50
2022-11-27T13:30:01.844Z,3.55
2022-11-27T13:32:30.374Z,3.75
2022-11-27T13:35:00.070Z,4.13
2022-11-27T13:37:29.666Z,3.80
2022-11-27T13:40:01.073Z,3.40
2022-11-27T13:42:29.260Z,3.70
2022-11-27T13:44:59.292Z,3.40
2022-11-27T13:47:28.964Z,3.70
2022-11-27T13:50:01.397Z,3.30
2022-11-27T13:52:29.605Z,3.70
2022-11-27T13:54:58.063Z,3.00
2022-11-27T13:57:26.359Z,4.22
2022-11-27T14:00:02.472Z,4.28
2022-11-27T14:02:41.191Z,2.92
2022-11-27T14:05:08.857Z,3.50
2022-11-27T14:07:37.497Z,3.67
2022-11-27T14:10:10.113Z,3.88
2022-11-27T14:12:38.396Z,3.90
2022-11-27T14:15:09.926Z,4.07
2022-11-27T14:17:40.314Z,3.38
2022-11-27T14:20:22.014Z,3.70
2022-11-27T14:25:38.143Z,3.53
2022-11-27T14:28:10.318Z,3.50
2022-11-27T14:30:41.158Z,3.10
2022-11-27T14:33:19.142Z,3.38
2022-11-27T14:35:49.076Z,3.53
2022-11-27T14:38:16.881Z,3.78
2022-11-27T14:40:44.678Z,3.17
2022-11-27T14:43:15.192Z,3.50
2022-11-27T14:45:44.756Z,3.20
2022-11-27T14:48:23.693Z,3.92
2022-11-27T14:50:51.877Z,4.00
2022-11-27T14:53:20.285Z,3.75
2022-11-27T14:55:49.138Z,3.65
2022-11-27T14:58:19.478Z,4.03
2022-11-27T15:00:54.055Z,3.90
2022-11-27T15:03:23.070Z,4.10
2022-11-27T15:05:54.557Z,4.15
2022-11-27T15:08:22.303Z,4.20
2022-11-27T15:10:50.060Z,4.40
2022-11-27T15:13:22.016Z,3.83
2022-11-27T15:15:54.624Z,4.03
2022-11-27T15:18:24.168Z,4.50
2022-11-27T15:20:52.280Z,4.40
2022-11-27T15:23:21.282Z,4.03
2022-11-27T15:25:50.134Z,3.92
2022-11-27T15:28:28.413Z,4.07
2022-11-27T15:30:56.273Z,4.43
2022-11-27T15:33:27.462Z,4.00
2022-11-27T15:35:55.441Z,4.30
2022-11-27T15:38:23.127Z,4.38
2022-11-27T15:40:59.199Z,4.30
2022-11-27T15:43:26.706Z,4.13
2022-11-27T15:45:54.216Z,4.88
2022-11-27T15:48:22.175Z,4.50
2022-11-27T15:50:51.972Z,4.15
2022-11-27T15:53:19.854Z,4.57
2022-11-27T15:55:47.295Z,3.95
2022-11-27T15:58:14.770Z,4.65
2022-11-27T16:00:42.319Z,4.35
2022-11-27T16:03:09.909Z,4.68
2022-11-27T16:05:37.369Z,4.78
2022-11-27T16:08:07.679Z,4.90
2022-11-27T16:10:35.250Z,4.97
2022-11-27T16:13:02.742Z,4.93
2022-11-27T16:15:33.107Z,5.40
2022-11-27T16:18:00.845Z,4.78
2022-11-27T16:20:28.599Z,4.82
2022-11-27T16:22:56.059Z,5.03
2022-11-27T16:25:26.272Z,5.03
2022-11-27T16:27:57.954Z,5.22
2022-11-27T16:30:28.545Z,5.15
2022-11-27T16:32:56.681Z,4.68
2022-11-27T16:35:24.998Z,4.22
2022-11-27T16:37:52.532Z,4.95
2022-11-27T16:40:20.398Z,4.97
2022-11-27T16:42:49.245Z,5.57
2022-11-27T16:45:16.787Z,5.10
2022-11-27T16:47:44.383Z,4.93
2022-11-27T16:50:11.977Z,5.50
2022-11-27T16:52:39.490Z,5.82
2022-11-27T16:55:07.346Z,5.45
2022-11-27T16:57:34.806Z,5.82
2022-11-27T17:00:03.800Z,6.38
2022-11-27T17:02:31.355Z,5.45
2022-11-27T17:04:58.994Z,5.57
2022-11-27T17:07:26.551Z,5.05
2022-11-27T17:09:54.200Z,6.78
2022-11-27T17:12:21.711Z,5.53
2022-11-27T17:14:49.431Z,9.88
2022-11-27T17:17:18.405Z,6.55
2022-11-27T17:19:47.215Z,5.63
2022-11-27T17:22:14.734Z,6.10
2022-11-27T17:24:42.293Z,7.50
2022-11-27T17:27:09.763Z,5.70
2022-11-27T17:29:37.328Z,6.38
2022-11-27T17:32:07.208Z,6.32
2022-11-27T17:34:36.246Z,6.05
2022-11-27T17:37:03.733Z,6.85
2022-11-27T17:39:31.181Z,6.53
2022-11-27T17:41:58.777Z,7.82
2022-11-27T17:44:26.338Z,6.40
2022-11-27T17:46:53.823Z,6.88
2022-11-27T17:49:21.985Z,6.70
2022-11-27T17:51:50.942Z,6.93
2022-11-27T17:54:18.431Z,7.03
2022-11-27T17:56:51.056Z,7.18
2022-11-27T17:59:18.747Z,6.97
2022-11-27T18:01:48.334Z,7.05
2022-11-27T18:04:15.858Z,7.13
2022-11-27T18:06:43.341Z,6.65
2022-11-27T18:09:12.383Z,7.43
2022-11-27T18:11:40.582Z,8.10
2022-11-27T18:14:08.108Z,7.15
2022-11-27T18:16:36.543Z,6.55
2022-11-27T18:19:05.338Z,6.07
2022-11-27T18:21:33.098Z,7.25
2022-11-27T18:29:37.673Z,6.40
2022-11-27T18:32:05.469Z,6.22
2022-11-27T18:34:33.076Z,6.80
2022-11-27T18:37:00.793Z,6.57
2022-11-27T18:39:28.535Z,7.03
2022-11-27T18:41:57.596Z,7.30
2022-11-27T18:44:25.167Z,7.20
2022-11-27T18:46:52.737Z,6.85
2022-11-27T18:49:22.694Z,6.22
2022-11-27T18:51:50.704Z,6.10
2022-11-27T18:54:18.223Z,6.22
2022-11-27T18:56:45.717Z,6.30
2022-11-27T18:59:14.798Z,6.45
2022-11-27T19:01:42.965Z,6.30
2022-11-27T19:04:11.127Z,6.43
2022-11-27T19:06:39.722Z,6.03
2022-11-27T19:09:07.209Z,6.88
2022-11-27T19:11:35.902Z,5.68
2022-11-27T19:14:03.786Z,6.35
2022-11-27T19:16:34.195Z,6.05
2022-11-27T19:19:02.790Z,6.85
2022-11-27T19:21:31.734Z,6.90
2022-11-27T19:23:59.757Z,6.25
2022-11-27T19:26:28.179Z,6.95
2022-11-27T19:28:57.074Z,7.55
2022-11-27T19:31:25.185Z,6.80
2022-11-27T19:33:54.486Z,6.80
2022-11-27T19:36:22.093Z,6.20
2022-11-27T19:38:54.150Z,6.90
2022-11-27T19:41:21.750Z,6.55
2022-11-27T19:43:49.218Z,6.43
2022-11-27T19:46:17.360Z,6.90
2022-11-27T19:48:45.204Z,7.05
2022-11-27T19:51:14.474Z,6.53
2022-11-27T19:53:42.269Z,6.75
2022-11-27T19:56:09.930Z,6.30
2022-11-27T19:58:38.097Z,6.82
2022-11-27T20:01:06.522Z,6.75
2022-11-27T20:03:34.080Z,7.60
2022-11-27T20:06:02.493Z,6.63
2022-11-27T20:08:31.328Z,8.48
2022-11-27T20:10:58.844Z,6.63
2022-11-27T20:13:26.529Z,6.18
2022-11-27T20:15:55.381Z,7.60
2022-11-27T20:18:23.050Z,7.47
2022-11-27T20:20:50.541Z,7.57
2022-11-27T20:23:18.015Z,7.10
2022-11-27T20:25:49.215Z,7.25
2022-11-27T20:28:16.709Z,6.75
2022-11-27T20:30:44.513Z,6.25
2022-11-27T20:33:13.070Z,6.93
2022-11-27T20:35:42.098Z,7.03
2022-11-27T20:38:09.549Z,6.20
2022-11-27T20:40:38.867Z,6.85
2022-11-27T20:43:08.848Z,6.90
2022-11-27T20:45:37.452Z,6.40
2022-11-27T20:48:05.162Z,7.07
2022-11-27T20:50:32.665Z,6.40
2022-11-27T20:53:00.116Z,7.07
2022-11-27T20:55:27.726Z,6.65
2022-11-27T20:57:55.252Z,7.40
2022-11-27T21:00:24.412Z,7.25
2022-11-27T21:02:51.875Z,7.30
2022-11-27T21:05:20.017Z,7.85
2022-11-27T21:07:47.617Z,7.65
2022-11-27T21:10:16.314Z,6.80
2022-11-27T21:12:43.863Z,7.80
2022-11-27T21:15:13.029Z,7.05
2022-11-27T21:17:41.885Z,7.03
2022-11-27T21:20:09.878Z,7.88
2022-11-27T21:22:37.386Z,7.30
2022-11-27T21:25:05.133Z,7.63
2022-11-27T21:27:32.668Z,6.38
2022-11-27T21:30:00.141Z,7.22
2022-11-27T21:32:27.709Z,6.60
2022-11-27T21:34:56.576Z,7.00
2022-11-27T21:37:24.709Z,6.25
2022-11-27T21:39:52.189Z,6.40
2022-11-27T21:42:20.333Z,7.35
2022-11-27T21:44:47.814Z,6.80
2022-11-27T21:47:15.272Z,6.93
2022-11-27T21:49:42.897Z,6.88
2022-11-27T21:52:11.696Z,6.43
2022-11-27T21:54:39.369Z,7.15
2022-11-27T21:57:07.012Z,7.00
2022-11-27T21:59:34.484Z,6.70
2022-11-27T22:02:01.963Z,7.45
2022-11-27T22:04:29.618Z,7.18
2022-11-27T22:06:57.144Z,7.20
2022-11-27T22:09:27.354Z,7.25
2022-11-27T22:11:54.814Z,7.53
2022-11-27T22:14:22.301Z,7.18
2022-11-27T22:16:49.846Z,7.03
2022-11-27T22:19:17.505Z,6.40
2022-11-27T22:21:45.277Z,8.25
2022-11-27T22:24:18.230Z,6.95
2022-11-27T22:26:47.590Z,7.82
2022-11-27T22:29:15.060Z,6.85
2022-11-27T22:31:42.488Z,6.75
2022-11-27T22:34:09.971Z,7.80
2022-11-27T22:36:37.504Z,6.25
2022-11-27T22:39:06.162Z,7.05
2022-11-27T22:41:36.337Z,7.07
2022-11-27T22:44:07.068Z,6.80
2022-11-27T22:46:35.517Z,7.25
2022-11-27T22:49:04.340Z,7.70
2022-11-27T22:51:32.546Z,6.72
2022-11-27T22:54:00.981Z,7.40
2022-11-27T22:56:28.486Z,6.88
2022-11-27T22:59:17.425Z,7.25
2022-11-27T23:01:44.739Z,6.85
2022-11-27T23:04:12.261Z,7.75
2022-11-27T23:06:39.768Z,7.10
2022-11-27T23:09:07.244Z,7.45
2022-11-27T23:11:34.734Z,7.20
2022-11-27T23:14:02.205Z,6.20
2022-11-27T23:16:29.743Z,7.97
2022-11-27T23:18:58.689Z,7.22
2022-11-27T23:21:26.736Z,7.00
2022-11-27T23:23:54.254Z,6.65
2022-11-27T23:26:23.394Z,7.18
2022-11-27T23:28:52.006Z,7.32
2022-11-27T23:31:36.462Z,7.35
2022-11-27T23:36:33.357Z,6.57
2022-11-27T23:39:01.395Z,6.40
2022-11-27T23:41:29.248Z,6.65
2022-11-27T23:43:56.942Z,6.57
2022-11-27T23:46:26.179Z,6.60
2022-11-27T23:48:54.597Z,6.53
2022-11-27T23:51:23.475Z,6.85
2022-11-27T23:53:52.393Z,6.78
2022-11-27T23:56:20.596Z,7.30
2022-11-27T23:58:48.330Z,6.97
